Amelia Island, Florida
Current Conditions -  °F | °C
As of 4:55 PM on Sunday 23 Nov 2014 (Local Time) from KFHB Reporting Station
Scattered Clouds Scattered Clouds  
Wind Chill: 73°   Ceiling: Unl
Heat Index: 73°   Visibility: 5mi
Dew Point: 70°   Wind: 15mph
Humidity: 88%   Direction: 150°SSE
Pressure: 29.83"   Gusts: NA
Location:  30.6056°N, 81.5268°W
Report Text: KFHB 232155Z AUTO 15013KT 5SM SCT046 SCT060 SCT075 23/21 A2983 RMK AO1 LTG DSNT N AND W
Loading
Personal Weather Stations






























Interactive Weather Map New forecast layout! Learn more

10-Day Weather Forecast

Advertisements
Track Severe Weather on mobile